sensor_id;sensor_type;location;lat;lon;timestamp;temperature;humidity
35563;DHT22;21665;40.108;18.302;2023-03-08T00:01:23;9.60;99.90
35563;DHT22;21665;40.108;18.302;2023-03-08T00:03:53;9.60;99.90
35563;DHT22;21665;40.108;18.302;2023-03-08T00:06:20;9.60;99.90
35563;DHT22;21665;40.108;18.302;2023-03-08T00:08:47;9.50;99.90
35563;DHT22;21665;40.108;18.302;2023-03-08T00:11:14;9.40;99.90
35563;DHT22;21665;40.108;18.302;2023-03-08T00:13:41;9.30;99.90
35563;DHT22;21665;40.108;18.302;2023-03-08T00:16:10;9.20;99.90
35563;DHT22;21665;40.108;18.302;2023-03-08T00:18:38;9.10;99.90
35563;DHT22;21665;40.108;18.302;2023-03-08T00:21:09;9.10;99.90
35563;DHT22;21665;40.108;18.302;2023-03-08T00:23:37;9.10;99.90
35563;DHT22;21665;40.108;18.302;2023-03-08T00:26:03;9.00;99.90
35563;DHT22;21665;40.108;18.302;2023-03-08T00:28:37;8.90;99.90
35563;DHT22;21665;40.108;18.302;2023-03-08T00:31:06;8.80;99.90
35563;DHT22;21665;40.108;18.302;2023-03-08T00:33:34;8.80;99.90
35563;DHT22;21665;40.108;18.302;2023-03-08T00:36:04;8.70;99.90
35563;DHT22;21665;40.108;18.302;2023-03-08T00:38:36;8.60;99.90
35563;DHT22;21665;40.108;18.302;2023-03-08T00:41:03;8.60;99.90
35563;DHT22;21665;40.108;18.302;2023-03-08T00:43:32;8.50;99.90
35563;DHT22;21665;40.108;18.302;2023-03-08T00:46:03;8.50;99.90
35563;DHT22;21665;40.108;18.302;2023-03-08T00:48:30;8.50;99.90
35563;DHT22;21665;40.108;18.302;2023-03-08T00:51:02;8.40;99.90
35563;DHT22;21665;40.108;18.302;2023-03-08T00:53:29;8.40;99.90
35563;DHT22;21665;40.108;18.302;2023-03-08T00:56:05;8.30;99.90
35563;DHT22;21665;40.108;18.302;2023-03-08T00:58:32;8.30;99.90
35563;DHT22;21665;40.108;18.302;2023-03-08T01:00:59;8.30;99.90
35563;DHT22;21665;40.108;18.302;2023-03-08T01:03:25;8.30;99.90
35563;DHT22;21665;40.108;18.302;2023-03-08T01:05:55;8.30;99.90
35563;DHT22;21665;40.108;18.302;2023-03-08T01:08:24;8.20;99.90
35563;DHT22;21665;40.108;18.302;2023-03-08T01:10:54;8.20;99.90
35563;DHT22;21665;40.108;18.302;2023-03-08T01:13:26;8.20;99.90
35563;DHT22;21665;40.108;18.302;2023-03-08T01:16:23;8.10;99.90
35563;DHT22;21665;40.108;18.302;2023-03-08T01:18:58;8.10;99.90
35563;DHT22;21665;40.108;18.302;2023-03-08T01:21:27;8.10;99.90
35563;DHT22;21665;40.108;18.302;2023-03-08T01:23:55;8.00;99.90
35563;DHT22;21665;40.108;18.302;2023-03-08T01:26:24;8.00;99.90
35563;DHT22;21665;40.108;18.302;2023-03-08T01:28:55;8.00;99.90
35563;DHT22;21665;40.108;18.302;2023-03-08T01:31:25;8.00;99.90
35563;DHT22;21665;40.108;18.302;2023-03-08T01:33:53;7.90;99.90
35563;DHT22;21665;40.108;18.302;2023-03-08T01:36:21;7.90;99.90
35563;DHT22;21665;40.108;18.302;2023-03-08T01:38:48;7.90;99.90
35563;DHT22;21665;40.108;18.302;2023-03-08T01:41:22;7.80;99.90
35563;DHT22;21665;40.108;18.302;2023-03-08T01:43:51;7.70;99.90
35563;DHT22;21665;40.108;18.302;2023-03-08T01:46:33;7.80;99.90
35563;DHT22;21665;40.108;18.302;2023-03-08T01:49:27;7.80;99.90
35563;DHT22;21665;40.108;18.302;2023-03-08T01:54:34;7.80;99.90
35563;DHT22;21665;40.108;18.302;2023-03-08T01:57:06;7.80;99.90
35563;DHT22;21665;40.108;18.302;2023-03-08T01:59:34;7.80;99.90
35563;DHT22;21665;40.108;18.302;2023-03-08T02:02:01;7.80;99.90
35563;DHT22;21665;40.108;18.302;2023-03-08T02:04:33;7.80;99.90
35563;DHT22;21665;40.108;18.302;2023-03-08T02:07:00;7.90;99.90
35563;DHT22;21665;40.108;18.302;2023-03-08T02:09:26;7.90;99.90
35563;DHT22;21665;40.108;18.302;2023-03-08T02:11:58;7.90;99.90
35563;DHT22;21665;40.108;18.302;2023-03-08T02:14:26;8.00;99.90
35563;DHT22;21665;40.108;18.302;2023-03-08T02:16:53;8.10;99.90
35563;DHT22;21665;40.108;18.302;2023-03-08T02:22:08;8.20;99.90
35563;DHT22;21665;40.108;18.302;2023-03-08T02:24:35;8.20;99.90
35563;DHT22;21665;40.108;18.302;2023-03-08T02:27:06;8.20;99.90
35563;DHT22;21665;40.108;18.302;2023-03-08T02:29:34;8.20;99.90
35563;DHT22;21665;40.108;18.302;2023-03-08T02:32:01;8.20;99.90
35563;DHT22;21665;40.108;18.302;2023-03-08T02:34:29;8.20;99.90
35563;DHT22;21665;40.108;18.302;2023-03-08T02:36:57;8.20;99.90
35563;DHT22;21665;40.108;18.302;2023-03-08T02:39:23;8.20;99.90
35563;DHT22;21665;40.108;18.302;2023-03-08T02:41:50;8.10;99.90
35563;DHT22;21665;40.108;18.302;2023-03-08T02:44:16;8.00;99.90
35563;DHT22;21665;40.108;18.302;2023-03-08T02:46:43;7.90;99.90
35563;DHT22;21665;40.108;18.302;2023-03-08T02:49:09;7.90;99.90
35563;DHT22;21665;40.108;18.302;2023-03-08T02:51:36;7.80;99.90
35563;DHT22;21665;40.108;18.302;2023-03-08T02:54:02;8.00;99.90
35563;DHT22;21665;40.108;18.302;2023-03-08T02:56:29;8.10;99.90
35563;DHT22;21665;40.108;18.302;2023-03-08T02:58:56;8.30;99.90
35563;DHT22;21665;40.108;18.302;2023-03-08T03:01:23;8.40;99.90
35563;DHT22;21665;40.108;18.302;2023-03-08T03:03:53;8.50;99.90
35563;DHT22;21665;40.108;18.302;2023-03-08T03:06:23;8.50;99.90
35563;DHT22;21665;40.108;18.302;2023-03-08T03:09:39;8.40;99.90
35563;DHT22;21665;40.108;18.302;2023-03-08T04:18:23;7.90;99.90
35563;DHT22;21665;40.108;18.302;2023-03-08T04:31:34;7.60;99.90
35563;DHT22;21665;40.108;18.302;2023-03-08T04:38:06;7.40;99.90
35563;DHT22;21665;40.108;18.302;2023-03-08T05:23:04;7.20;99.90
35563;DHT22;21665;40.108;18.302;2023-03-08T05:26:03;7.10;99.90
35563;DHT22;21665;40.108;18.302;2023-03-08T05:29:19;7.10;99.90
35563;DHT22;21665;40.108;18.302;2023-03-08T05:33:05;7.20;99.90
35563;DHT22;21665;40.108;18.302;2023-03-08T05:36:05;7.30;99.90
35563;DHT22;21665;40.108;18.302;2023-03-08T05:46:01;7.70;99.90
35563;DHT22;21665;40.108;18.302;2023-03-08T05:48:32;7.80;99.90
35563;DHT22;21665;40.108;18.302;2023-03-08T05:51:08;8.00;99.90
35563;DHT22;21665;40.108;18.302;2023-03-08T05:53:35;8.20;99.90
35563;DHT22;21665;40.108;18.302;2023-03-08T05:59:59;8.70;99.90
35563;DHT22;21665;40.108;18.302;2023-03-08T06:05:38;9.30;99.90
35563;DHT22;21665;40.108;18.302;2023-03-08T06:08:51;10.00;99.90
35563;DHT22;21665;40.108;18.302;2023-03-08T06:11:19;10.80;99.90
35563;DHT22;21665;40.108;18.302;2023-03-08T06:13:48;11.60;99.90
35563;DHT22;21665;40.108;18.302;2023-03-08T06:16:14;12.60;99.90
35563;DHT22;21665;40.108;18.302;2023-03-08T06:18:41;12.90;99.90
35563;DHT22;21665;40.108;18.302;2023-03-08T06:21:13;12.80;99.90
35563;DHT22;21665;40.108;18.302;2023-03-08T06:23:42;12.50;99.90
35563;DHT22;21665;40.108;18.302;2023-03-08T06:26:10;12.20;99.90
35563;DHT22;21665;40.108;18.302;2023-03-08T06:28:39;11.90;99.90
35563;DHT22;21665;40.108;18.302;2023-03-08T06:31:10;11.70;99.90
35563;DHT22;21665;40.108;18.302;2023-03-08T06:33:37;11.70;99.90
35563;DHT22;21665;40.108;18.302;2023-03-08T06:38:36;11.60;99.90
35563;DHT22;21665;40.108;18.302;2023-03-08T06:41:05;11.50;99.90
35563;DHT22;21665;40.108;18.302;2023-03-08T06:43:33;11.50;99.90
35563;DHT22;21665;40.108;18.302;2023-03-08T06:46:05;11.50;99.90
35563;DHT22;21665;40.108;18.302;2023-03-08T06:48:33;11.80;99.90
35563;DHT22;21665;40.108;18.302;2023-03-08T06:51:00;12.30;99.90
35563;DHT22;21665;40.108;18.302;2023-03-08T06:53:27;12.90;99.90
35563;DHT22;21665;40.108;18.302;2023-03-08T06:55:58;13.20;99.90
35563;DHT22;21665;40.108;18.302;2023-03-08T06:58:30;13.70;99.90
35563;DHT22;21665;40.108;18.302;2023-03-08T07:00:57;14.10;99.90
35563;DHT22;21665;40.108;18.302;2023-03-08T07:03:29;14.10;99.90
35563;DHT22;21665;40.108;18.302;2023-03-08T07:06:07;14.00;99.90
35563;DHT22;21665;40.108;18.302;2023-03-08T07:08:34;14.00;99.90
35563;DHT22;21665;40.108;18.302;2023-03-08T07:11:01;13.80;99.90
35563;DHT22;21665;40.108;18.302;2023-03-08T07:13:28;14.00;99.90
35563;DHT22;21665;40.108;18.302;2023-03-08T07:15:55;14.10;99.90
35563;DHT22;21665;40.108;18.302;2023-03-08T07:18:22;14.10;99.90
35563;DHT22;21665;40.108;18.302;2023-03-08T07:20:56;14.20;99.90
35563;DHT22;21665;40.108;18.302;2023-03-08T07:23:25;14.30;99.90
35563;DHT22;21665;40.108;18.302;2023-03-08T07:25:52;14.30;99.90
35563;DHT22;21665;40.108;18.302;2023-03-08T07:28:20;14.40;99.90
35563;DHT22;21665;40.108;18.302;2023-03-08T07:30:48;14.80;99.90
35563;DHT22;21665;40.108;18.302;2023-03-08T07:33:15;15.30;99.90
35563;DHT22;21665;40.108;18.302;2023-03-08T07:35:43;15.80;99.90
35563;DHT22;21665;40.108;18.302;2023-03-08T07:38:11;16.10;99.90
35563;DHT22;21665;40.108;18.302;2023-03-08T07:40:38;16.40;99.90
35563;DHT22;21665;40.108;18.302;2023-03-08T07:43:05;16.60;99.90
35563;DHT22;21665;40.108;18.302;2023-03-08T10:29:31;19.00;99.90
35563;DHT22;21665;40.108;18.302;2023-03-08T10:31:58;19.00;99.90
35563;DHT22;21665;40.108;18.302;2023-03-08T10:34:29;19.30;99.90
35563;DHT22;21665;40.108;18.302;2023-03-08T10:37:02;19.30;99.90
35563;DHT22;21665;40.108;18.302;2023-03-08T10:39:29;19.30;99.90
35563;DHT22;21665;40.108;18.302;2023-03-08T10:42:05;19.40;99.90
35563;DHT22;21665;40.108;18.302;2023-03-08T10:44:41;19.40;99.90
35563;DHT22;21665;40.108;18.302;2023-03-08T10:50:17;19.20;99.90
35563;DHT22;21665;40.108;18.302;2023-03-08T10:52:45;19.60;99.90
35563;DHT22;21665;40.108;18.302;2023-03-08T10:55:22;19.60;99.90
35563;DHT22;21665;40.108;18.302;2023-03-08T10:57:58;19.60;99.90
35563;DHT22;21665;40.108;18.302;2023-03-08T11:00:38;19.60;99.90
35563;DHT22;21665;40.108;18.302;2023-03-08T11:03:19;19.70;99.90
35563;DHT22;21665;40.108;18.302;2023-03-08T11:05:57;19.80;99.90
35563;DHT22;21665;40.108;18.302;2023-03-08T11:08:32;19.70;99.90
35563;DHT22;21665;40.108;18.302;2023-03-08T11:11:10;19.50;99.90
35563;DHT22;21665;40.108;18.302;2023-03-08T11:13:43;19.60;99.90
35563;DHT22;21665;40.108;18.302;2023-03-08T11:19:29;19.70;99.90
35563;DHT22;21665;40.108;18.302;2023-03-08T11:24:57;20.00;99.90
35563;DHT22;21665;40.108;18.302;2023-03-08T11:27:58;20.10;99.90
35563;DHT22;21665;40.108;18.302;2023-03-08T11:36:34;19.70;99.90
35563;DHT22;21665;40.108;18.302;2023-03-08T11:39:25;20.00;99.90
35563;DHT22;21665;40.108;18.302;2023-03-08T11:42:05;20.10;99.90
35563;DHT22;21665;40.108;18.302;2023-03-08T11:44:54;20.50;99.90
35563;DHT22;21665;40.108;18.302;2023-03-08T11:54:08;20.40;99.90
35563;DHT22;21665;40.108;18.302;2023-03-08T11:56:53;20.40;99.90
35563;DHT22;21665;40.108;18.302;2023-03-08T12:02:01;20.50;99.90
35563;DHT22;21665;40.108;18.302;2023-03-08T12:05:09;19.90;99.90
35563;DHT22;21665;40.108;18.302;2023-03-08T12:16:41;19.90;99.90
35563;DHT22;21665;40.108;18.302;2023-03-08T12:19:26;20.00;99.90
35563;DHT22;21665;40.108;18.302;2023-03-08T12:33:30;20.80;99.90
35563;DHT22;21665;40.108;18.302;2023-03-08T12:35:59;20.80;99.90
35563;DHT22;21665;40.108;18.302;2023-03-08T12:38:42;20.70;99.90
35563;DHT22;21665;40.108;18.302;2023-03-08T12:41:43;20.60;99.90
35563;DHT22;21665;40.108;18.302;2023-03-08T12:44:27;20.50;99.90
35563;DHT22;21665;40.108;18.302;2023-03-08T12:46:58;20.70;99.90
35563;DHT22;21665;40.108;18.302;2023-03-08T12:49:37;20.80;99.90
35563;DHT22;21665;40.108;18.302;2023-03-08T12:52:26;20.70;99.90
35563;DHT22;21665;40.108;18.302;2023-03-08T12:54:57;20.60;99.90
35563;DHT22;21665;40.108;18.302;2023-03-08T12:57:33;20.50;99.90
35563;DHT22;21665;40.108;18.302;2023-03-08T13:00:23;20.40;99.90
35563;DHT22;21665;40.108;18.302;2023-03-08T13:05:40;20.40;99.90
35563;DHT22;21665;40.108;18.302;2023-03-08T13:10:40;20.30;99.90
35563;DHT22;21665;40.108;18.302;2023-03-08T13:15:39;20.30;99.90
35563;DHT22;21665;40.108;18.302;2023-03-08T13:21:03;20.20;99.90
35563;DHT22;21665;40.108;18.302;2023-03-08T13:23:37;20.00;99.90
35563;DHT22;21665;40.108;18.302;2023-03-08T13:29:18;19.90;99.90
35563;DHT22;21665;40.108;18.302;2023-03-08T13:31:45;20.00;99.90
35563;DHT22;21665;40.108;18.302;2023-03-08T13:34:29;20.10;99.90
35563;DHT22;21665;40.108;18.302;2023-03-08T13:36:57;20.30;99.90
35563;DHT22;21665;40.108;18.302;2023-03-08T13:39:27;20.30;99.90
35563;DHT22;21665;40.108;18.302;2023-03-08T13:42:10;20.20;99.90
35563;DHT22;21665;40.108;18.302;2023-03-08T13:44:38;20.20;99.90
35563;DHT22;21665;40.108;18.302;2023-03-08T13:47:29;20.40;99.90
35563;DHT22;21665;40.108;18.302;2023-03-08T13:49:58;20.30;99.90
35563;DHT22;21665;40.108;18.302;2023-03-08T13:52:30;20.10;99.90
35563;DHT22;21665;40.108;18.302;2023-03-08T13:55:00;20.00;99.90
35563;DHT22;21665;40.108;18.302;2023-03-08T13:57:31;20.10;99.90
35563;DHT22;21665;40.108;18.302;2023-03-08T14:00:28;19.90;99.90
35563;DHT22;21665;40.108;18.302;2023-03-08T14:02:56;19.90;99.90
35563;DHT22;21665;40.108;18.302;2023-03-08T14:05:31;19.60;99.90
35563;DHT22;21665;40.108;18.302;2023-03-08T14:08:01;19.50;99.90
35563;DHT22;21665;40.108;18.302;2023-03-08T14:10:48;19.30;99.90
35563;DHT22;21665;40.108;18.302;2023-03-08T14:13:37;18.80;99.90
35563;DHT22;21665;40.108;18.302;2023-03-08T14:16:08;18.70;99.90
35563;DHT22;21665;40.108;18.302;2023-03-08T14:18:47;18.90;99.90
35563;DHT22;21665;40.108;18.302;2023-03-08T14:21:19;18.60;99.90
35563;DHT22;21665;40.108;18.302;2023-03-08T14:23:58;18.60;99.90
35563;DHT22;21665;40.108;18.302;2023-03-08T14:29:27;18.50;99.90
35563;DHT22;21665;40.108;18.302;2023-03-08T14:34:47;18.30;99.90
35563;DHT22;21665;40.108;18.302;2023-03-08T14:37:26;18.30;99.90
35563;DHT22;21665;40.108;18.302;2023-03-08T14:40:24;18.20;99.90
35563;DHT22;21665;40.108;18.302;2023-03-08T14:43:03;18.20;99.90
35563;DHT22;21665;40.108;18.302;2023-03-08T14:45:56;18.00;99.90
35563;DHT22;21665;40.108;18.302;2023-03-08T14:48:43;18.00;99.90
35563;DHT22;21665;40.108;18.302;2023-03-08T14:56:49;17.80;99.90
35563;DHT22;21665;40.108;18.302;2023-03-08T14:59:16;17.60;99.90
35563;DHT22;21665;40.108;18.302;2023-03-08T15:01:43;17.60;99.90
35563;DHT22;21665;40.108;18.302;2023-03-08T15:04:21;17.50;99.90
35563;DHT22;21665;40.108;18.302;2023-03-08T15:06:49;17.30;99.90
35563;DHT22;21665;40.108;18.302;2023-03-08T15:09:18;17.30;99.90
35563;DHT22;21665;40.108;18.302;2023-03-08T16:17:37;15.20;99.90
35563;DHT22;21665;40.108;18.302;2023-03-08T16:26:47;14.90;99.90
35563;DHT22;21665;40.108;18.302;2023-03-08T16:29:13;14.80;99.90
35563;DHT22;21665;40.108;18.302;2023-03-08T16:31:45;14.70;99.90
35563;DHT22;21665;40.108;18.302;2023-03-08T16:34:33;14.50;99.90
35563;DHT22;21665;40.108;18.302;2023-03-08T16:41:48;14.20;99.90
35563;DHT22;21665;40.108;18.302;2023-03-08T16:44:21;14.10;99.90
35563;DHT22;21665;40.108;18.302;2023-03-08T16:46:53;14.00;99.90
35563;DHT22;21665;40.108;18.302;2023-03-08T16:49:43;13.90;99.90
35563;DHT22;21665;40.108;18.302;2023-03-08T16:52:17;13.80;99.90
35563;DHT22;21665;40.108;18.302;2023-03-08T16:54:49;13.70;99.90
35563;DHT22;21665;40.108;18.302;2023-03-08T16:57:45;13.70;99.90
35563;DHT22;21665;40.108;18.302;2023-03-08T17:00:24;13.60;99.90
35563;DHT22;21665;40.108;18.302;2023-03-08T17:11:41;13.60;99.90
35563;DHT22;21665;40.108;18.302;2023-03-08T18:38:54;12.50;99.90
35563;DHT22;21665;40.108;18.302;2023-03-08T18:42:27;12.50;99.90
35563;DHT22;21665;40.108;18.302;2023-03-08T19:14:01;12.40;99.90
35563;DHT22;21665;40.108;18.302;2023-03-08T19:16:30;12.50;99.90
35563;DHT22;21665;40.108;18.302;2023-03-08T19:19:03;12.40;99.90
35563;DHT22;21665;40.108;18.302;2023-03-08T19:22:48;12.30;99.90
35563;DHT22;21665;40.108;18.302;2023-03-08T19:39:16;12.00;99.90
35563;DHT22;21665;40.108;18.302;2023-03-08T19:41:57;12.00;99.90
35563;DHT22;21665;40.108;18.302;2023-03-08T19:44:25;11.90;99.90
35563;DHT22;21665;40.108;18.302;2023-03-08T19:47:01;11.90;99.90
35563;DHT22;21665;40.108;18.302;2023-03-08T19:49:33;11.90;99.90
35563;DHT22;21665;40.108;18.302;2023-03-08T19:52:12;11.80;99.90
35563;DHT22;21665;40.108;18.302;2023-03-08T19:54:54;11.80;99.90
35563;DHT22;21665;40.108;18.302;2023-03-08T19:57:35;11.70;99.90
35563;DHT22;21665;40.108;18.302;2023-03-08T20:00:16;11.70;99.90
35563;DHT22;21665;40.108;18.302;2023-03-08T20:02:44;11.70;99.90
35563;DHT22;21665;40.108;18.302;2023-03-08T20:05:12;11.70;99.90
35563;DHT22;21665;40.108;18.302;2023-03-08T20:07:39;11.70;99.90
35563;DHT22;21665;40.108;18.302;2023-03-08T20:10:06;11.70;99.90
35563;DHT22;21665;40.108;18.302;2023-03-08T20:12:32;11.70;99.90
35563;DHT22;21665;40.108;18.302;2023-03-08T20:14:59;11.70;99.90
35563;DHT22;21665;40.108;18.302;2023-03-08T20:17:26;11.60;99.90
35563;DHT22;21665;40.108;18.302;2023-03-08T20:20:02;11.50;99.90
35563;DHT22;21665;40.108;18.302;2023-03-08T20:22:33;11.50;99.90
35563;DHT22;21665;40.108;18.302;2023-03-08T20:25:01;11.50;99.90
35563;DHT22;21665;40.108;18.302;2023-03-08T20:27:30;11.50;99.90
35563;DHT22;21665;40.108;18.302;2023-03-08T20:29:58;11.50;99.90
35563;DHT22;21665;40.108;18.302;2023-03-08T20:32:27;11.50;99.90
35563;DHT22;21665;40.108;18.302;2023-03-08T20:34:54;11.50;99.90
35563;DHT22;21665;40.108;18.302;2023-03-08T20:37:21;11.40;99.90
35563;DHT22;21665;40.108;18.302;2023-03-08T20:39:54;11.40;99.90
35563;DHT22;21665;40.108;18.302;2023-03-08T20:42:21;11.40;99.90
35563;DHT22;21665;40.108;18.302;2023-03-08T20:44:48;11.40;99.90
35563;DHT22;21665;40.108;18.302;2023-03-08T20:47:14;11.40;99.90
35563;DHT22;21665;40.108;18.302;2023-03-08T20:49:40;11.40;99.90
35563;DHT22;21665;40.108;18.302;2023-03-08T20:52:08;11.40;99.90
35563;DHT22;21665;40.108;18.302;2023-03-08T20:54:35;11.50;99.90
35563;DHT22;21665;40.108;18.302;2023-03-08T20:57:01;11.50;99.90
35563;DHT22;21665;40.108;18.302;2023-03-08T20:59:27;11.50;99.90
35563;DHT22;21665;40.108;18.302;2023-03-08T21:01:54;11.50;99.90
35563;DHT22;21665;40.108;18.302;2023-03-08T21:04:22;11.60;99.90
35563;DHT22;21665;40.108;18.302;2023-03-08T21:06:48;11.60;99.90
35563;DHT22;21665;40.108;18.302;2023-03-08T21:09:15;11.60;99.90
35563;DHT22;21665;40.108;18.302;2023-03-08T21:11:41;11.60;99.90
35563;DHT22;21665;40.108;18.302;2023-03-08T21:14:09;11.50;99.90
35563;DHT22;21665;40.108;18.302;2023-03-08T21:16:35;11.50;99.90
35563;DHT22;21665;40.108;18.302;2023-03-08T21:19:03;11.50;99.90
35563;DHT22;21665;40.108;18.302;2023-03-08T21:21:35;11.40;99.90
35563;DHT22;21665;40.108;18.302;2023-03-08T21:24:05;11.30;99.90
35563;DHT22;21665;40.108;18.302;2023-03-08T21:26:33;11.20;99.90
35563;DHT22;21665;40.108;18.302;2023-03-08T21:29:02;11.20;99.90
35563;DHT22;21665;40.108;18.302;2023-03-08T21:31:30;11.10;99.90
35563;DHT22;21665;40.108;18.302;2023-03-08T21:33:59;11.00;99.90
35563;DHT22;21665;40.108;18.302;2023-03-08T21:36:26;11.00;99.90
35563;DHT22;21665;40.108;18.302;2023-03-08T21:38:54;10.90;99.90
35563;DHT22;21665;40.108;18.302;2023-03-08T21:41:24;10.90;99.90
35563;DHT22;21665;40.108;18.302;2023-03-08T21:43:50;10.90;99.90
35563;DHT22;21665;40.108;18.302;2023-03-08T21:46:17;11.00;99.90
35563;DHT22;21665;40.108;18.302;2023-03-08T21:48:45;11.00;99.90
35563;DHT22;21665;40.108;18.302;2023-03-08T21:51:13;11.00;99.90
35563;DHT22;21665;40.108;18.302;2023-03-08T21:53:41;11.00;99.90
35563;DHT22;21665;40.108;18.302;2023-03-08T21:56:09;10.90;99.90
35563;DHT22;21665;40.108;18.302;2023-03-08T21:58:37;10.90;99.90
35563;DHT22;21665;40.108;18.302;2023-03-08T22:01:04;10.90;99.90
35563;DHT22;21665;40.108;18.302;2023-03-08T22:03:32;10.90;99.90
35563;DHT22;21665;40.108;18.302;2023-03-08T22:05:59;10.80;99.90
35563;DHT22;21665;40.108;18.302;2023-03-08T22:08:26;10.80;99.90
35563;DHT22;21665;40.108;18.302;2023-03-08T22:10:53;10.80;99.90
35563;DHT22;21665;40.108;18.302;2023-03-08T22:13:20;10.80;99.90
35563;DHT22;21665;40.108;18.302;2023-03-08T22:15:46;10.70;99.90
35563;DHT22;21665;40.108;18.302;2023-03-08T22:18:13;10.70;99.90
35563;DHT22;21665;40.108;18.302;2023-03-08T22:20:39;10.70;99.90
35563;DHT22;21665;40.108;18.302;2023-03-08T22:23:06;10.60;99.90
35563;DHT22;21665;40.108;18.302;2023-03-08T22:25:32;10.60;99.90
35563;DHT22;21665;40.108;18.302;2023-03-08T22:27:58;10.60;99.90
35563;DHT22;21665;40.108;18.302;2023-03-08T22:30:25;10.60;99.90
35563;DHT22;21665;40.108;18.302;2023-03-08T22:32:52;10.60;99.90
35563;DHT22;21665;40.108;18.302;2023-03-08T22:35:19;10.50;99.90
35563;DHT22;21665;40.108;18.302;2023-03-08T22:37:48;10.60;99.90
35563;DHT22;21665;40.108;18.302;2023-03-08T22:40:15;10.60;99.90
35563;DHT22;21665;40.108;18.302;2023-03-08T22:42:44;10.60;99.90
35563;DHT22;21665;40.108;18.302;2023-03-08T22:45:11;10.60;99.90
35563;DHT22;21665;40.108;18.302;2023-03-08T22:47:38;10.70;99.90
35563;DHT22;21665;40.108;18.302;2023-03-08T22:50:04;10.60;99.90
35563;DHT22;21665;40.108;18.302;2023-03-08T22:52:31;10.60;99.90
35563;DHT22;21665;40.108;18.302;2023-03-08T22:54:58;10.50;99.90
35563;DHT22;21665;40.108;18.302;2023-03-08T22:57:24;10.50;99.90
35563;DHT22;21665;40.108;18.302;2023-03-08T22:59:55;10.50;99.90
35563;DHT22;21665;40.108;18.302;2023-03-08T23:02:22;10.50;99.90
35563;DHT22;21665;40.108;18.302;2023-03-08T23:04:49;10.50;99.90
35563;DHT22;21665;40.108;18.302;2023-03-08T23:07:15;10.50;99.90
35563;DHT22;21665;40.108;18.302;2023-03-08T23:09:41;10.50;99.90
35563;DHT22;21665;40.108;18.302;2023-03-08T23:12:23;10.50;99.90
35563;DHT22;21665;40.108;18.302;2023-03-08T23:14:53;10.50;99.90
35563;DHT22;21665;40.108;18.302;2023-03-08T23:17:21;10.50;99.90
35563;DHT22;21665;40.108;18.302;2023-03-08T23:19:50;10.50;99.90
35563;DHT22;21665;40.108;18.302;2023-03-08T23:22:17;10.50;99.90
35563;DHT22;21665;40.108;18.302;2023-03-08T23:24:43;10.50;99.90
35563;DHT22;21665;40.108;18.302;2023-03-08T23:27:10;10.50;99.90
35563;DHT22;21665;40.108;18.302;2023-03-08T23:29:36;10.50;99.90
35563;DHT22;21665;40.108;18.302;2023-03-08T23:32:04;10.50;99.90
35563;DHT22;21665;40.108;18.302;2023-03-08T23:34:31;10.50;99.90
35563;DHT22;21665;40.108;18.302;2023-03-08T23:36:57;10.50;99.90
35563;DHT22;21665;40.108;18.302;2023-03-08T23:39:26;10.50;99.90
35563;DHT22;21665;40.108;18.302;2023-03-08T23:41:52;10.40;99.90
35563;DHT22;21665;40.108;18.302;2023-03-08T23:44:18;10.40;99.90
35563;DHT22;21665;40.108;18.302;2023-03-08T23:46:45;10.40;99.90
35563;DHT22;21665;40.108;18.302;2023-03-08T23:49:11;10.30;99.90
35563;DHT22;21665;40.108;18.302;2023-03-08T23:51:38;10.30;99.90
35563;DHT22;21665;40.108;18.302;2023-03-08T23:54:04;10.40;99.90
35563;DHT22;21665;40.108;18.302;2023-03-08T23:56:34;10.40;99.90
35563;DHT22;21665;40.108;18.302;2023-03-08T23:59:13;10.50;99.90
